sensor_id;sensor_type;location;lat;lon;timestamp;P1;durP1;ratioP1;P2;durP2;ratioP2
22780;SDS011;11557;50.884;4.322;2023-02-28T00:01:38;9.77;;;7.10;;
22780;SDS011;11557;50.884;4.322;2023-02-28T00:04:04;13.05;;;6.40;;
22780;SDS011;11557;50.884;4.322;2023-02-28T00:06:30;12.38;;;7.55;;
22780;SDS011;11557;50.884;4.322;2023-02-28T00:08:55;9.30;;;6.65;;
22780;SDS011;11557;50.884;4.322;2023-02-28T00:11:21;10.02;;;7.00;;
22780;SDS011;11557;50.884;4.322;2023-02-28T00:13:47;11.45;;;6.55;;
22780;SDS011;11557;50.884;4.322;2023-02-28T00:16:17;12.23;;;7.28;;
22780;SDS011;11557;50.884;4.322;2023-02-28T00:18:45;10.68;;;7.25;;
22780;SDS011;11557;50.884;4.322;2023-02-28T00:21:12;11.70;;;7.35;;
22780;SDS011;11557;50.884;4.322;2023-02-28T00:23:38;9.02;;;6.53;;
22780;SDS011;11557;50.884;4.322;2023-02-28T00:26:03;11.32;;;6.63;;
22780;SDS011;11557;50.884;4.322;2023-02-28T00:28:29;10.95;;;7.63;;
22780;SDS011;11557;50.884;4.322;2023-02-28T00:30:55;9.35;;;6.82;;
22780;SDS011;11557;50.884;4.322;2023-02-28T00:33:22;11.50;;;6.85;;
22780;SDS011;11557;50.884;4.322;2023-02-28T00:35:48;10.15;;;7.25;;
22780;SDS011;11557;50.884;4.322;2023-02-28T00:38:14;9.77;;;6.78;;
22780;SDS011;11557;50.884;4.322;2023-02-28T00:40:40;10.40;;;6.97;;
22780;SDS011;11557;50.884;4.322;2023-02-28T00:43:06;13.48;;;7.07;;
22780;SDS011;11557;50.884;4.322;2023-02-28T00:45:32;14.38;;;7.13;;
22780;SDS011;11557;50.884;4.322;2023-02-28T00:47:58;9.75;;;7.38;;
22780;SDS011;11557;50.884;4.322;2023-02-28T00:50:23;9.63;;;7.28;;
22780;SDS011;11557;50.884;4.322;2023-02-28T00:52:49;10.10;;;7.00;;
22780;SDS011;11557;50.884;4.322;2023-02-28T00:55:15;10.23;;;7.15;;
22780;SDS011;11557;50.884;4.322;2023-02-28T00:57:41;10.30;;;7.60;;
22780;SDS011;11557;50.884;4.322;2023-02-28T01:00:07;10.52;;;7.70;;
22780;SDS011;11557;50.884;4.322;2023-02-28T01:02:33;11.15;;;7.40;;
22780;SDS011;11557;50.884;4.322;2023-02-28T01:04:59;8.93;;;7.47;;
22780;SDS011;11557;50.884;4.322;2023-02-28T01:07:24;12.15;;;7.90;;
22780;SDS011;11557;50.884;4.322;2023-02-28T01:09:50;10.55;;;7.55;;
22780;SDS011;11557;50.884;4.322;2023-02-28T01:12:16;11.02;;;7.47;;
22780;SDS011;11557;50.884;4.322;2023-02-28T01:14:42;12.13;;;7.07;;
22780;SDS011;11557;50.884;4.322;2023-02-28T01:17:08;12.18;;;8.27;;
22780;SDS011;11557;50.884;4.322;2023-02-28T01:19:34;9.73;;;7.75;;
22780;SDS011;11557;50.884;4.322;2023-02-28T01:22:04;15.25;;;8.05;;
22780;SDS011;11557;50.884;4.322;2023-02-28T01:24:31;13.70;;;7.78;;
22780;SDS011;11557;50.884;4.322;2023-02-28T01:26:57;11.77;;;8.30;;
22780;SDS011;11557;50.884;4.322;2023-02-28T01:29:24;12.05;;;7.82;;
22780;SDS011;11557;50.884;4.322;2023-02-28T01:31:50;12.55;;;8.15;;
22780;SDS011;11557;50.884;4.322;2023-02-28T01:34:16;12.95;;;7.82;;
22780;SDS011;11557;50.884;4.322;2023-02-28T01:36:44;10.23;;;7.85;;
22780;SDS011;11557;50.884;4.322;2023-02-28T01:39:09;10.60;;;8.07;;
22780;SDS011;11557;50.884;4.322;2023-02-28T01:41:35;10.73;;;8.40;;
22780;SDS011;11557;50.884;4.322;2023-02-28T01:44:05;12.45;;;8.32;;
22780;SDS011;11557;50.884;4.322;2023-02-28T01:46:32;11.15;;;7.65;;
22780;SDS011;11557;50.884;4.322;2023-02-28T01:49:11;9.18;;;8.18;;
22780;SDS011;11557;50.884;4.322;2023-02-28T01:51:47;13.43;;;8.52;;
22780;SDS011;11557;50.884;4.322;2023-02-28T01:54:27;11.18;;;8.63;;
22780;SDS011;11557;50.884;4.322;2023-02-28T01:56:57;9.85;;;8.38;;
22780;SDS011;11557;50.884;4.322;2023-02-28T01:59:29;11.90;;;8.75;;
22780;SDS011;11557;50.884;4.322;2023-02-28T02:02:16;11.88;;;8.77;;
22780;SDS011;11557;50.884;4.322;2023-02-28T02:04:46;10.82;;;9.40;;
22780;SDS011;11557;50.884;4.322;2023-02-28T02:07:18;11.57;;;9.43;;
22780;SDS011;11557;50.884;4.322;2023-02-28T02:09:44;15.40;;;8.80;;
22780;SDS011;11557;50.884;4.322;2023-02-28T02:12:18;10.98;;;9.68;;
22780;SDS011;11557;50.884;4.322;2023-02-28T02:15:08;13.88;;;9.05;;
22780;SDS011;11557;50.884;4.322;2023-02-28T02:17:41;14.60;;;9.70;;
22780;SDS011;11557;50.884;4.322;2023-02-28T02:39:37;13.95;;;10.20;;
22780;SDS011;11557;50.884;4.322;2023-02-28T02:45:12;13.55;;;9.75;;
22780;SDS011;11557;50.884;4.322;2023-02-28T02:47:41;17.08;;;10.50;;
22780;SDS011;11557;50.884;4.322;2023-02-28T02:50:11;18.20;;;10.57;;
22780;SDS011;11557;50.884;4.322;2023-02-28T02:52:44;12.83;;;10.67;;
22780;SDS011;11557;50.884;4.322;2023-02-28T02:55:14;15.25;;;11.00;;
22780;SDS011;11557;50.884;4.322;2023-02-28T02:57:56;14.85;;;9.82;;
22780;SDS011;11557;50.884;4.322;2023-02-28T03:00:30;12.90;;;10.40;;
22780;SDS011;11557;50.884;4.322;2023-02-28T03:03:02;15.48;;;11.38;;
22780;SDS011;11557;50.884;4.322;2023-02-28T03:05:34;14.02;;;10.82;;
22780;SDS011;11557;50.884;4.322;2023-02-28T03:08:06;13.98;;;10.68;;
22780;SDS011;11557;50.884;4.322;2023-02-28T03:10:36;15.48;;;10.55;;
22780;SDS011;11557;50.884;4.322;2023-02-28T03:15:32;16.52;;;11.40;;
22780;SDS011;11557;50.884;4.322;2023-02-28T03:24:04;13.90;;;10.60;;
22780;SDS011;11557;50.884;4.322;2023-02-28T03:26:43;17.25;;;11.48;;
22780;SDS011;11557;50.884;4.322;2023-02-28T03:31:54;15.32;;;10.95;;
22780;SDS011;11557;50.884;4.322;2023-02-28T03:34:27;18.42;;;11.10;;
22780;SDS011;11557;50.884;4.322;2023-02-28T03:36:59;13.77;;;10.90;;
22780;SDS011;11557;50.884;4.322;2023-02-28T03:39:39;15.63;;;10.85;;
22780;SDS011;11557;50.884;4.322;2023-02-28T03:42:09;14.70;;;11.18;;
22780;SDS011;11557;50.884;4.322;2023-02-28T03:47:31;15.52;;;11.23;;
22780;SDS011;11557;50.884;4.322;2023-02-28T03:50:19;18.77;;;11.02;;
22780;SDS011;11557;50.884;4.322;2023-02-28T03:53:00;15.93;;;10.95;;
22780;SDS011;11557;50.884;4.322;2023-02-28T03:55:41;17.67;;;11.55;;
22780;SDS011;11557;50.884;4.322;2023-02-28T04:00:51;17.92;;;11.57;;
22780;SDS011;11557;50.884;4.322;2023-02-28T04:03:21;16.00;;;10.27;;
22780;SDS011;11557;50.884;4.322;2023-02-28T04:05:52;15.75;;;11.27;;
22780;SDS011;11557;50.884;4.322;2023-02-28T04:08:18;17.17;;;11.55;;
22780;SDS011;11557;50.884;4.322;2023-02-28T04:10:45;16.17;;;11.68;;
22780;SDS011;11557;50.884;4.322;2023-02-28T04:13:18;21.63;;;11.50;;
22780;SDS011;11557;50.884;4.322;2023-02-28T04:15:43;18.15;;;10.82;;
22780;SDS011;11557;50.884;4.322;2023-02-28T04:18:09;21.27;;;12.23;;
22780;SDS011;11557;50.884;4.322;2023-02-28T04:20:35;19.08;;;11.15;;
22780;SDS011;11557;50.884;4.322;2023-02-28T04:23:01;16.65;;;11.05;;
22780;SDS011;11557;50.884;4.322;2023-02-28T04:25:26;15.05;;;11.18;;
22780;SDS011;11557;50.884;4.322;2023-02-28T04:27:52;17.63;;;10.95;;
22780;SDS011;11557;50.884;4.322;2023-02-28T04:30:18;14.68;;;11.10;;
22780;SDS011;11557;50.884;4.322;2023-02-28T04:32:43;18.75;;;12.25;;
22780;SDS011;11557;50.884;4.322;2023-02-28T04:35:09;14.98;;;11.55;;
22780;SDS011;11557;50.884;4.322;2023-02-28T04:37:35;15.20;;;11.38;;
22780;SDS011;11557;50.884;4.322;2023-02-28T04:40:02;15.45;;;11.57;;
22780;SDS011;11557;50.884;4.322;2023-02-28T04:42:28;17.02;;;12.30;;
22780;SDS011;11557;50.884;4.322;2023-02-28T04:45:00;18.02;;;11.48;;
22780;SDS011;11557;50.884;4.322;2023-02-28T04:47:29;17.33;;;11.65;;
22780;SDS011;11557;50.884;4.322;2023-02-28T04:49:55;14.30;;;11.23;;
22780;SDS011;11557;50.884;4.322;2023-02-28T04:52:21;16.52;;;10.98;;
22780;SDS011;11557;50.884;4.322;2023-02-28T04:54:47;16.65;;;11.50;;
22780;SDS011;11557;50.884;4.322;2023-02-28T04:57:12;12.98;;;11.48;;
22780;SDS011;11557;50.884;4.322;2023-02-28T04:59:38;16.63;;;11.70;;
22780;SDS011;11557;50.884;4.322;2023-02-28T05:02:04;14.95;;;11.90;;
22780;SDS011;11557;50.884;4.322;2023-02-28T05:04:34;19.65;;;11.48;;
22780;SDS011;11557;50.884;4.322;2023-02-28T05:07:00;17.60;;;11.63;;
22780;SDS011;11557;50.884;4.322;2023-02-28T05:09:28;15.20;;;11.25;;
22780;SDS011;11557;50.884;4.322;2023-02-28T05:11:53;17.10;;;11.88;;
22780;SDS011;11557;50.884;4.322;2023-02-28T05:14:19;13.68;;;11.10;;
22780;SDS011;11557;50.884;4.322;2023-02-28T05:16:45;17.75;;;11.52;;
22780;SDS011;11557;50.884;4.322;2023-02-28T05:19:11;20.17;;;11.32;;
22780;SDS011;11557;50.884;4.322;2023-02-28T05:21:40;16.85;;;12.02;;
22780;SDS011;11557;50.884;4.322;2023-02-28T05:24:13;13.27;;;10.90;;
22780;SDS011;11557;50.884;4.322;2023-02-28T05:26:41;15.02;;;10.95;;
22780;SDS011;11557;50.884;4.322;2023-02-28T05:29:07;15.65;;;10.82;;
22780;SDS011;11557;50.884;4.322;2023-02-28T05:31:34;12.88;;;11.27;;
22780;SDS011;11557;50.884;4.322;2023-02-28T05:34:00;15.48;;;11.18;;
22780;SDS011;11557;50.884;4.322;2023-02-28T05:36:26;16.35;;;10.45;;
22780;SDS011;11557;50.884;4.322;2023-02-28T05:38:52;17.73;;;11.75;;
22780;SDS011;11557;50.884;4.322;2023-02-28T05:41:18;15.15;;;10.32;;
22780;SDS011;11557;50.884;4.322;2023-02-28T05:43:44;15.20;;;11.30;;
22780;SDS011;11557;50.884;4.322;2023-02-28T05:46:12;17.38;;;11.77;;
22780;SDS011;11557;50.884;4.322;2023-02-28T05:48:39;14.18;;;10.65;;
22780;SDS011;11557;50.884;4.322;2023-02-28T05:51:06;14.23;;;10.68;;
22780;SDS011;11557;50.884;4.322;2023-02-28T05:53:32;14.00;;;11.23;;
22780;SDS011;11557;50.884;4.322;2023-02-28T05:55:58;15.88;;;11.07;;
22780;SDS011;11557;50.884;4.322;2023-02-28T05:58:24;18.75;;;10.80;;
22780;SDS011;11557;50.884;4.322;2023-02-28T06:00:54;17.30;;;10.98;;
22780;SDS011;11557;50.884;4.322;2023-02-28T06:03:20;15.95;;;10.13;;
22780;SDS011;11557;50.884;4.322;2023-02-28T06:05:45;16.85;;;11.02;;
22780;SDS011;11557;50.884;4.322;2023-02-28T06:08:11;12.90;;;10.32;;
22780;SDS011;11557;50.884;4.322;2023-02-28T06:10:37;20.13;;;12.32;;
22780;SDS011;11557;50.884;4.322;2023-02-28T06:13:03;16.45;;;10.48;;
22780;SDS011;11557;50.884;4.322;2023-02-28T06:15:29;14.85;;;10.82;;
22780;SDS011;11557;50.884;4.322;2023-02-28T06:17:55;13.60;;;10.93;;
22780;SDS011;11557;50.884;4.322;2023-02-28T06:20:22;17.25;;;10.98;;
22780;SDS011;11557;50.884;4.322;2023-02-28T06:22:49;17.65;;;10.30;;
22780;SDS011;11557;50.884;4.322;2023-02-28T06:25:19;14.38;;;11.23;;
22780;SDS011;11557;50.884;4.322;2023-02-28T06:27:45;20.38;;;10.55;;
22780;SDS011;11557;50.884;4.322;2023-02-28T06:30:11;16.25;;;11.30;;
22780;SDS011;11557;50.884;4.322;2023-02-28T06:32:37;19.33;;;10.15;;
22780;SDS011;11557;50.884;4.322;2023-02-28T06:35:03;15.90;;;10.35;;
22780;SDS011;11557;50.884;4.322;2023-02-28T06:37:30;12.88;;;10.85;;
22780;SDS011;11557;50.884;4.322;2023-02-28T06:39:56;16.63;;;10.40;;
22780;SDS011;11557;50.884;4.322;2023-02-28T06:42:22;17.98;;;10.40;;
22780;SDS011;11557;50.884;4.322;2023-02-28T06:44:54;18.17;;;10.23;;
22780;SDS011;11557;50.884;4.322;2023-02-28T06:47:20;16.70;;;9.90;;
22780;SDS011;11557;50.884;4.322;2023-02-28T06:49:46;16.95;;;10.63;;
22780;SDS011;11557;50.884;4.322;2023-02-28T06:52:12;12.93;;;10.52;;
22780;SDS011;11557;50.884;4.322;2023-02-28T06:54:38;13.38;;;9.73;;
22780;SDS011;11557;50.884;4.322;2023-02-28T06:57:03;17.45;;;10.05;;
22780;SDS011;11557;50.884;4.322;2023-02-28T06:59:29;15.20;;;10.63;;
22780;SDS011;11557;50.884;4.322;2023-02-28T07:01:55;14.48;;;9.98;;
22780;SDS011;11557;50.884;4.322;2023-02-28T07:04:21;15.77;;;10.77;;
22780;SDS011;11557;50.884;4.322;2023-02-28T07:06:47;17.05;;;10.60;;
22780;SDS011;11557;50.884;4.322;2023-02-28T07:09:12;15.35;;;10.80;;
22780;SDS011;11557;50.884;4.322;2023-02-28T07:11:39;13.50;;;10.02;;
22780;SDS011;11557;50.884;4.322;2023-02-28T07:14:05;14.05;;;9.57;;
22780;SDS011;11557;50.884;4.322;2023-02-28T07:16:31;14.55;;;10.30;;
22780;SDS011;11557;50.884;4.322;2023-02-28T07:18:57;16.83;;;9.90;;
22780;SDS011;11557;50.884;4.322;2023-02-28T07:21:23;14.70;;;9.60;;
22780;SDS011;11557;50.884;4.322;2023-02-28T07:23:49;15.57;;;10.38;;
22780;SDS011;11557;50.884;4.322;2023-02-28T07:26:16;15.15;;;9.68;;
22780;SDS011;11557;50.884;4.322;2023-02-28T07:28:44;17.33;;;9.80;;
22780;SDS011;11557;50.884;4.322;2023-02-28T07:31:11;15.98;;;10.45;;
22780;SDS011;11557;50.884;4.322;2023-02-28T07:33:39;14.95;;;9.45;;
22780;SDS011;11557;50.884;4.322;2023-02-28T07:36:06;18.52;;;9.25;;
22780;SDS011;11557;50.884;4.322;2023-02-28T07:38:36;12.80;;;8.85;;
22780;SDS011;11557;50.884;4.322;2023-02-28T07:41:02;18.48;;;9.20;;
22780;SDS011;11557;50.884;4.322;2023-02-28T07:43:31;14.18;;;9.63;;
22780;SDS011;11557;50.884;4.322;2023-02-28T07:46:01;13.18;;;9.70;;
22780;SDS011;11557;50.884;4.322;2023-02-28T07:48:32;13.18;;;8.48;;
22780;SDS011;11557;50.884;4.322;2023-02-28T07:50:58;10.48;;;8.65;;
22780;SDS011;11557;50.884;4.322;2023-02-28T07:53:24;14.93;;;9.00;;
22780;SDS011;11557;50.884;4.322;2023-02-28T07:55:51;9.63;;;7.57;;
22780;SDS011;11557;50.884;4.322;2023-02-28T07:58:19;14.48;;;7.70;;
22780;SDS011;11557;50.884;4.322;2023-02-28T08:00:45;12.38;;;8.15;;
22780;SDS011;11557;50.884;4.322;2023-02-28T08:03:11;13.85;;;7.72;;
22780;SDS011;11557;50.884;4.322;2023-02-28T08:05:39;12.88;;;8.20;;
22780;SDS011;11557;50.884;4.322;2023-02-28T08:08:05;10.75;;;7.97;;
22780;SDS011;11557;50.884;4.322;2023-02-28T08:10:32;13.23;;;6.57;;
22780;SDS011;11557;50.884;4.322;2023-02-28T08:12:58;12.52;;;6.70;;
22780;SDS011;11557;50.884;4.322;2023-02-28T08:15:23;8.63;;;6.35;;
22780;SDS011;11557;50.884;4.322;2023-02-28T08:17:49;14.27;;;6.25;;
22780;SDS011;11557;50.884;4.322;2023-02-28T08:20:15;10.82;;;6.50;;
22780;SDS011;11557;50.884;4.322;2023-02-28T08:22:40;8.30;;;5.50;;
22780;SDS011;11557;50.884;4.322;2023-02-28T08:25:07;12.77;;;5.95;;
22780;SDS011;11557;50.884;4.322;2023-02-28T08:27:33;7.97;;;5.35;;
22780;SDS011;11557;50.884;4.322;2023-02-28T08:29:59;8.20;;;5.22;;
22780;SDS011;11557;50.884;4.322;2023-02-28T08:32:25;7.20;;;5.22;;
22780;SDS011;11557;50.884;4.322;2023-02-28T08:34:51;7.20;;;4.38;;
22780;SDS011;11557;50.884;4.322;2023-02-28T08:37:16;5.25;;;3.97;;
22780;SDS011;11557;50.884;4.322;2023-02-28T08:39:42;6.70;;;4.63;;
22780;SDS011;11557;50.884;4.322;2023-02-28T08:42:07;6.50;;;4.72;;
22780;SDS011;11557;50.884;4.322;2023-02-28T08:44:33;7.55;;;4.05;;
22780;SDS011;11557;50.884;4.322;2023-02-28T08:46:59;8.35;;;4.50;;
22780;SDS011;11557;50.884;4.322;2023-02-28T08:49:25;7.10;;;4.28;;
22780;SDS011;11557;50.884;4.322;2023-02-28T08:51:51;6.30;;;4.38;;
22780;SDS011;11557;50.884;4.322;2023-02-28T08:54:17;8.07;;;4.15;;
22780;SDS011;11557;50.884;4.322;2023-02-28T08:56:44;6.68;;;4.32;;
22780;SDS011;11557;50.884;4.322;2023-02-28T08:59:12;6.28;;;3.83;;
22780;SDS011;11557;50.884;4.322;2023-02-28T09:01:38;6.40;;;3.90;;
22780;SDS011;11557;50.884;4.322;2023-02-28T09:04:06;6.32;;;3.50;;
22780;SDS011;11557;50.884;4.322;2023-02-28T09:06:33;5.57;;;4.15;;
22780;SDS011;11557;50.884;4.322;2023-02-28T09:09:00;4.55;;;3.20;;
22780;SDS011;11557;50.884;4.322;2023-02-28T09:11:26;6.05;;;3.67;;
22780;SDS011;11557;50.884;4.322;2023-02-28T09:13:53;9.38;;;3.70;;
22780;SDS011;11557;50.884;4.322;2023-02-28T09:16:20;9.20;;;4.00;;
22780;SDS011;11557;50.884;4.322;2023-02-28T09:18:46;5.38;;;2.80;;
22780;SDS011;11557;50.884;4.322;2023-02-28T09:21:13;6.13;;;3.10;;
22780;SDS011;11557;50.884;4.322;2023-02-28T09:23:41;5.60;;;2.85;;
22780;SDS011;11557;50.884;4.322;2023-02-28T09:26:08;6.97;;;3.38;;
22780;SDS011;11557;50.884;4.322;2023-02-28T09:28:48;5.25;;;2.80;;
22780;SDS011;11557;50.884;4.322;2023-02-28T09:31:19;9.02;;;3.03;;
22780;SDS011;11557;50.884;4.322;2023-02-28T09:33:47;4.28;;;2.88;;
22780;SDS011;11557;50.884;4.322;2023-02-28T09:36:14;5.30;;;2.80;;
22780;SDS011;11557;50.884;4.322;2023-02-28T09:38:40;5.82;;;3.03;;
22780;SDS011;11557;50.884;4.322;2023-02-28T09:41:39;6.20;;;2.65;;
22780;SDS011;11557;50.884;4.322;2023-02-28T09:44:12;5.68;;;3.30;;
22780;SDS011;11557;50.884;4.322;2023-02-28T09:46:44;5.15;;;2.70;;
22780;SDS011;11557;50.884;4.322;2023-02-28T09:49:16;4.28;;;2.70;;
22780;SDS011;11557;50.884;4.322;2023-02-28T09:51:52;2.92;;;2.60;;
22780;SDS011;11557;50.884;4.322;2023-02-28T09:54:28;5.20;;;2.72;;
22780;SDS011;11557;50.884;4.322;2023-02-28T10:05:08;4.88;;;2.60;;
22780;SDS011;11557;50.884;4.322;2023-02-28T10:13:19;4.35;;;2.30;;
22780;SDS011;11557;50.884;4.322;2023-02-28T10:16:06;4.32;;;2.10;;
22780;SDS011;11557;50.884;4.322;2023-02-28T10:18:56;4.20;;;2.10;;
22780;SDS011;11557;50.884;4.322;2023-02-28T10:21:30;5.18;;;2.33;;
22780;SDS011;11557;50.884;4.322;2023-02-28T10:26:44;3.13;;;2.17;;
22780;SDS011;11557;50.884;4.322;2023-02-28T10:29:13;3.75;;;2.45;;
22780;SDS011;11557;50.884;4.322;2023-02-28T10:31:40;3.30;;;1.80;;
22780;SDS011;11557;50.884;4.322;2023-02-28T10:34:07;5.07;;;2.30;;
22780;SDS011;11557;50.884;4.322;2023-02-28T10:36:40;4.63;;;2.15;;
22780;SDS011;11557;50.884;4.322;2023-02-28T10:42:18;6.45;;;2.10;;
22780;SDS011;11557;50.884;4.322;2023-02-28T10:44:46;3.45;;;2.08;;
22780;SDS011;11557;50.884;4.322;2023-02-28T10:47:38;3.10;;;1.83;;
22780;SDS011;11557;50.884;4.322;2023-02-28T10:50:29;6.85;;;2.25;;
22780;SDS011;11557;50.884;4.322;2023-02-28T10:55:57;3.13;;;2.00;;
22780;SDS011;11557;50.884;4.322;2023-02-28T10:58:48;2.72;;;1.73;;
22780;SDS011;11557;50.884;4.322;2023-02-28T11:04:30;3.33;;;2.03;;
22780;SDS011;11557;50.884;4.322;2023-02-28T11:07:18;2.17;;;1.88;;
22780;SDS011;11557;50.884;4.322;2023-02-28T11:09:46;2.42;;;1.80;;
22780;SDS011;11557;50.884;4.322;2023-02-28T11:12:47;3.25;;;2.10;;
22780;SDS011;11557;50.884;4.322;2023-02-28T11:15:24;2.88;;;1.92;;
22780;SDS011;11557;50.884;4.322;2023-02-28T11:18:01;4.25;;;2.10;;
22780;SDS011;11557;50.884;4.322;2023-02-28T11:20:55;9.93;;;2.42;;
22780;SDS011;11557;50.884;4.322;2023-02-28T11:23:26;2.97;;;2.30;;
22780;SDS011;11557;50.884;4.322;2023-02-28T11:25:57;2.97;;;2.05;;
22780;SDS011;11557;50.884;4.322;2023-02-28T11:28:34;3.40;;;2.22;;
22780;SDS011;11557;50.884;4.322;2023-02-28T11:33:47;3.70;;;2.30;;
22780;SDS011;11557;50.884;4.322;2023-02-28T11:36:22;3.40;;;2.42;;
22780;SDS011;11557;50.884;4.322;2023-02-28T11:38:53;3.25;;;2.47;;
22780;SDS011;11557;50.884;4.322;2023-02-28T11:55:36;5.03;;;2.42;;
22780;SDS011;11557;50.884;4.322;2023-02-28T12:12:07;2.95;;;2.40;;
22780;SDS011;11557;50.884;4.322;2023-02-28T12:29:01;5.93;;;3.13;;
22780;SDS011;11557;50.884;4.322;2023-02-28T12:31:36;3.17;;;2.70;;
22780;SDS011;11557;50.884;4.322;2023-02-28T12:34:07;3.00;;;2.55;;
22780;SDS011;11557;50.884;4.322;2023-02-28T12:36:38;3.40;;;2.60;;
22780;SDS011;11557;50.884;4.322;2023-02-28T12:41:48;4.10;;;2.88;;
22780;SDS011;11557;50.884;4.322;2023-02-28T12:46:58;2.80;;;2.22;;
22780;SDS011;11557;50.884;4.322;2023-02-28T12:55:40;3.05;;;2.30;;
22780;SDS011;11557;50.884;4.322;2023-02-28T13:01:04;5.18;;;2.60;;
22780;SDS011;11557;50.884;4.322;2023-02-28T13:09:17;4.53;;;2.45;;
22780;SDS011;11557;50.884;4.322;2023-02-28T13:11:48;4.50;;;2.40;;
22780;SDS011;11557;50.884;4.322;2023-02-28T13:17:02;3.83;;;2.50;;
22780;SDS011;11557;50.884;4.322;2023-02-28T13:19:46;9.48;;;2.53;;
22780;SDS011;11557;50.884;4.322;2023-02-28T13:24:51;8.00;;;2.78;;
22780;SDS011;11557;50.884;4.322;2023-02-28T13:27:21;3.17;;;2.58;;
22780;SDS011;11557;50.884;4.322;2023-02-28T13:29:49;5.53;;;2.67;;
22780;SDS011;11557;50.884;4.322;2023-02-28T13:55:53;6.78;;;2.58;;
22780;SDS011;11557;50.884;4.322;2023-02-28T14:01:16;3.90;;;2.65;;
22780;SDS011;11557;50.884;4.322;2023-02-28T14:09:31;3.17;;;2.88;;
22780;SDS011;11557;50.884;4.322;2023-02-28T14:20:45;5.95;;;3.00;;
22780;SDS011;11557;50.884;4.322;2023-02-28T14:31:25;5.30;;;3.03;;
22780;SDS011;11557;50.884;4.322;2023-02-28T14:34:04;4.97;;;2.70;;
22780;SDS011;11557;50.884;4.322;2023-02-28T14:36:55;4.15;;;3.05;;
22780;SDS011;11557;50.884;4.322;2023-02-28T14:39:25;10.23;;;3.00;;
22780;SDS011;11557;50.884;4.322;2023-02-28T14:41:52;4.45;;;2.65;;
22780;SDS011;11557;50.884;4.322;2023-02-28T14:44:19;3.08;;;2.70;;
22780;SDS011;11557;50.884;4.322;2023-02-28T14:46:48;2.97;;;2.55;;
22780;SDS011;11557;50.884;4.322;2023-02-28T14:49:17;8.93;;;3.10;;
22780;SDS011;11557;50.884;4.322;2023-02-28T14:51:47;4.55;;;3.13;;
22780;SDS011;11557;50.884;4.322;2023-02-28T14:54:15;4.22;;;3.03;;
22780;SDS011;11557;50.884;4.322;2023-02-28T14:56:49;6.22;;;3.30;;
22780;SDS011;11557;50.884;4.322;2023-02-28T14:59:29;3.60;;;3.30;;
22780;SDS011;11557;50.884;4.322;2023-02-28T15:04:55;6.97;;;3.30;;
22780;SDS011;11557;50.884;4.322;2023-02-28T15:07:23;4.28;;;2.92;;
22780;SDS011;11557;50.884;4.322;2023-02-28T15:10:18;5.97;;;3.30;;
22780;SDS011;11557;50.884;4.322;2023-02-28T15:12:55;3.83;;;3.30;;
22780;SDS011;11557;50.884;4.322;2023-02-28T15:18:21;4.53;;;3.13;;
22780;SDS011;11557;50.884;4.322;2023-02-28T15:20:57;4.57;;;3.28;;
22780;SDS011;11557;50.884;4.322;2023-02-28T15:23:27;4.57;;;3.42;;
22780;SDS011;11557;50.884;4.322;2023-02-28T15:25:53;4.18;;;3.22;;
22780;SDS011;11557;50.884;4.322;2023-02-28T15:28:20;4.18;;;2.85;;
22780;SDS011;11557;50.884;4.322;2023-02-28T15:30:58;3.60;;;3.17;;
22780;SDS011;11557;50.884;4.322;2023-02-28T15:33:27;4.75;;;3.40;;
22780;SDS011;11557;50.884;4.322;2023-02-28T15:36:06;3.38;;;2.83;;
22780;SDS011;11557;50.884;4.322;2023-02-28T15:38:41;5.07;;;3.70;;
22780;SDS011;11557;50.884;4.322;2023-02-28T15:41:21;5.32;;;3.63;;
22780;SDS011;11557;50.884;4.322;2023-02-28T15:43:47;5.97;;;3.13;;
22780;SDS011;11557;50.884;4.322;2023-02-28T15:46:13;4.50;;;3.47;;
22780;SDS011;11557;50.884;4.322;2023-02-28T15:48:44;8.52;;;3.15;;
22780;SDS011;11557;50.884;4.322;2023-02-28T15:53:48;4.35;;;3.40;;
22780;SDS011;11557;50.884;4.322;2023-02-28T15:56:32;4.90;;;3.47;;
22780;SDS011;11557;50.884;4.322;2023-02-28T15:59:13;9.90;;;3.25;;
22780;SDS011;11557;50.884;4.322;2023-02-28T16:01:42;5.93;;;3.70;;
22780;SDS011;11557;50.884;4.322;2023-02-28T16:04:15;3.58;;;3.28;;
22780;SDS011;11557;50.884;4.322;2023-02-28T16:09:15;3.88;;;3.22;;
22780;SDS011;11557;50.884;4.322;2023-02-28T16:11:43;5.65;;;3.30;;
22780;SDS011;11557;50.884;4.322;2023-02-28T16:14:18;3.63;;;3.33;;
22780;SDS011;11557;50.884;4.322;2023-02-28T16:16:51;7.28;;;3.40;;
22780;SDS011;11557;50.884;4.322;2023-02-28T16:19:18;4.25;;;3.05;;
22780;SDS011;11557;50.884;4.322;2023-02-28T16:21:45;6.95;;;4.13;;
22780;SDS011;11557;50.884;4.322;2023-02-28T16:24:11;5.85;;;3.20;;
22780;SDS011;11557;50.884;4.322;2023-02-28T16:26:41;4.75;;;3.35;;
22780;SDS011;11557;50.884;4.322;2023-02-28T16:29:13;6.70;;;3.60;;
22780;SDS011;11557;50.884;4.322;2023-02-28T16:31:57;6.18;;;3.60;;
22780;SDS011;11557;50.884;4.322;2023-02-28T16:34:23;5.78;;;3.30;;
22780;SDS011;11557;50.884;4.322;2023-02-28T16:36:50;3.55;;;3.03;;
22780;SDS011;11557;50.884;4.322;2023-02-28T16:39:16;5.32;;;3.88;;
22780;SDS011;11557;50.884;4.322;2023-02-28T16:41:42;12.13;;;4.10;;
22780;SDS011;11557;50.884;4.322;2023-02-28T16:44:11;4.03;;;3.63;;
22780;SDS011;11557;50.884;4.322;2023-02-28T16:46:45;5.45;;;3.67;;
22780;SDS011;11557;50.884;4.322;2023-02-28T16:49:11;7.32;;;3.75;;
22780;SDS011;11557;50.884;4.322;2023-02-28T16:51:38;6.15;;;3.60;;
22780;SDS011;11557;50.884;4.322;2023-02-28T16:54:03;10.23;;;3.80;;
22780;SDS011;11557;50.884;4.322;2023-02-28T16:56:29;5.40;;;3.95;;
22780;SDS011;11557;50.884;4.322;2023-02-28T16:58:58;8.43;;;3.90;;
22780;SDS011;11557;50.884;4.322;2023-02-28T17:01:26;5.15;;;3.75;;
22780;SDS011;11557;50.884;4.322;2023-02-28T17:03:53;15.63;;;3.97;;
22780;SDS011;11557;50.884;4.322;2023-02-28T17:06:25;5.40;;;3.65;;
22780;SDS011;11557;50.884;4.322;2023-02-28T17:08:53;6.13;;;4.25;;
22780;SDS011;11557;50.884;4.322;2023-02-28T17:11:19;5.35;;;3.63;;
22780;SDS011;11557;50.884;4.322;2023-02-28T17:13:46;7.25;;;3.70;;
22780;SDS011;11557;50.884;4.322;2023-02-28T17:16:32;12.43;;;6.28;;
22780;SDS011;11557;50.884;4.322;2023-02-28T17:19:04;8.75;;;5.18;;
22780;SDS011;11557;50.884;4.322;2023-02-28T17:21:31;10.25;;;7.80;;
22780;SDS011;11557;50.884;4.322;2023-02-28T17:23:59;9.10;;;6.13;;
22780;SDS011;11557;50.884;4.322;2023-02-28T17:26:35;15.38;;;11.70;;
22780;SDS011;11557;50.884;4.322;2023-02-28T17:29:01;13.32;;;10.90;;
22780;SDS011;11557;50.884;4.322;2023-02-28T17:31:27;13.55;;;9.82;;
22780;SDS011;11557;50.884;4.322;2023-02-28T17:33:53;6.85;;;5.82;;
22780;SDS011;11557;50.884;4.322;2023-02-28T17:36:23;6.70;;;5.47;;
22780;SDS011;11557;50.884;4.322;2023-02-28T17:38:51;10.73;;;5.55;;
22780;SDS011;11557;50.884;4.322;2023-02-28T17:41:17;10.45;;;6.75;;
22780;SDS011;11557;50.884;4.322;2023-02-28T17:43:44;13.00;;;7.13;;
22780;SDS011;11557;50.884;4.322;2023-02-28T17:46:27;10.38;;;5.65;;
22780;SDS011;11557;50.884;4.322;2023-02-28T17:48:53;8.27;;;5.93;;
22780;SDS011;11557;50.884;4.322;2023-02-28T17:51:22;10.68;;;5.30;;
22780;SDS011;11557;50.884;4.322;2023-02-28T17:53:49;22.08;;;8.32;;
22780;SDS011;11557;50.884;4.322;2023-02-28T17:56:22;27.63;;;8.25;;
22780;SDS011;11557;50.884;4.322;2023-02-28T17:58:49;23.13;;;8.60;;
22780;SDS011;11557;50.884;4.322;2023-02-28T18:01:18;23.15;;;6.53;;
22780;SDS011;11557;50.884;4.322;2023-02-28T18:03:45;18.88;;;6.32;;
22780;SDS011;11557;50.884;4.322;2023-02-28T18:06:16;11.82;;;6.10;;